createdAt,value
2023-03-03T00:00:58.297Z,1.85
2023-03-03T00:03:30.144Z,1.83
2023-03-03T00:06:04.560Z,1.80
2023-03-03T00:08:38.456Z,1.77
2023-03-03T00:11:14.356Z,1.77
2023-03-03T00:13:49.321Z,1.76
2023-03-03T00:16:24.380Z,1.73
2023-03-03T00:18:56.612Z,1.70
2023-03-03T00:21:51.412Z,1.71
2023-03-03T00:24:37.429Z,1.66
2023-03-03T00:27:31.663Z,1.59
2023-03-03T00:30:05.152Z,1.56
2023-03-03T00:32:46.999Z,1.54
2023-03-03T00:35:27.290Z,1.53
2023-03-03T00:38:12.852Z,1.53
2023-03-03T00:40:45.117Z,1.52
2023-03-03T00:43:24.918Z,1.54
2023-03-03T00:45:59.460Z,1.54
2023-03-03T00:48:42.858Z,1.54
2023-03-03T00:51:23.565Z,1.52
2023-03-03T00:54:23.138Z,1.47
2023-03-03T00:56:54.888Z,1.44
2023-03-03T00:59:26.828Z,1.40
2023-03-03T01:01:58.705Z,1.38
2023-03-03T01:04:30.748Z,1.37
2023-03-03T01:07:02.752Z,1.34
2023-03-03T01:09:34.445Z,1.32
2023-03-03T01:12:06.415Z,1.30
2023-03-03T01:14:39.383Z,1.30
2023-03-03T01:17:14.881Z,1.26
2023-03-03T01:19:46.726Z,1.25
2023-03-03T01:22:18.770Z,1.26
2023-03-03T01:24:50.517Z,1.25
2023-03-03T01:27:25.321Z,1.21
2023-03-03T01:29:57.109Z,1.18
2023-03-03T01:32:29.316Z,1.16
2023-03-03T01:35:01.218Z,1.14
2023-03-03T01:37:36.129Z,1.10
2023-03-03T01:40:16.198Z,1.08
2023-03-03T01:42:47.995Z,1.05
2023-03-03T01:45:27.162Z,1.04
2023-03-03T01:48:07.283Z,1.02
2023-03-03T01:50:47.816Z,1.00
2023-03-03T01:53:23.905Z,0.95
2023-03-03T01:55:56.450Z,0.95
2023-03-03T01:58:31.328Z,0.94
2023-03-03T02:01:06.706Z,0.90
2023-03-03T02:03:39.250Z,0.88
2023-03-03T02:06:15.677Z,0.86
2023-03-03T02:09:13.584Z,0.86
2023-03-03T02:11:47.485Z,0.82
2023-03-03T02:14:19.583Z,0.77
2023-03-03T02:16:51.829Z,0.74
2023-03-03T02:20:00.210Z,0.72
2023-03-03T02:22:51.489Z,0.72
2023-03-03T02:25:51.475Z,0.68
2023-03-03T02:28:32.566Z,0.67
2023-03-03T02:31:18.925Z,0.65
2023-03-03T02:33:52.995Z,0.63
2023-03-03T02:36:36.632Z,0.59
2023-03-03T02:39:18.192Z,0.58
2023-03-03T02:42:11.955Z,0.55
2023-03-03T02:44:53.742Z,0.56
2023-03-03T02:47:25.518Z,0.56
2023-03-03T02:49:57.526Z,0.56
2023-03-03T02:52:29.276Z,0.55
2023-03-03T02:55:04.286Z,0.52
2023-03-03T02:57:37.019Z,0.50
2023-03-03T03:00:12.299Z,0.46
2023-03-03T03:02:44.441Z,0.43
2023-03-03T03:05:19.491Z,0.43
2023-03-03T03:07:51.301Z,0.42
2023-03-03T03:10:26.697Z,0.40
2023-03-03T03:12:58.367Z,0.38
2023-03-03T03:15:30.227Z,0.38
2023-03-03T03:18:04.144Z,0.37
2023-03-03T03:20:40.110Z,0.37
2023-03-03T03:23:13.104Z,0.36
2023-03-03T03:25:47.640Z,0.35
2023-03-03T03:28:26.666Z,0.32
2023-03-03T03:31:00.749Z,0.28
2023-03-03T03:33:35.302Z,0.27
2023-03-03T03:36:09.199Z,0.22
2023-03-03T03:38:40.994Z,0.24
2023-03-03T03:41:14.271Z,0.25
2023-03-03T03:43:45.999Z,0.23
2023-03-03T03:46:17.850Z,0.23
2023-03-03T03:48:49.660Z,0.24
2023-03-03T03:51:24.531Z,0.23
2023-03-03T03:53:58.476Z,0.21
2023-03-03T03:56:30.406Z,0.18
2023-03-03T03:59:07.256Z,0.14
2023-03-03T04:01:39.520Z,0.12
2023-03-03T04:04:11.445Z,0.11
2023-03-03T04:06:44.206Z,0.10
2023-03-03T04:09:17.031Z,0.11
2023-03-03T04:11:53.482Z,0.09
2023-03-03T04:14:26.495Z,0.08
2023-03-03T04:17:08.882Z,0.06
2023-03-03T04:19:40.703Z,0.05
2023-03-03T04:22:13.716Z,0.04
2023-03-03T04:24:45.692Z,0.02
2023-03-03T04:27:17.508Z,0.01
2023-03-03T04:29:49.714Z,-0.03
2023-03-03T04:32:24.414Z,-0.08
2023-03-03T04:35:21.562Z,-0.09
2023-03-03T04:37:56.302Z,-0.11
2023-03-03T04:40:33.917Z,-0.10
2023-03-03T04:43:07.747Z,-0.12
2023-03-03T04:45:40.237Z,-0.18
2023-03-03T04:48:15.299Z,-0.23
2023-03-03T04:50:47.258Z,-0.25
2023-03-03T04:53:19.169Z,-0.26
2023-03-03T04:55:53.964Z,-0.26
2023-03-03T04:58:26.685Z,-0.27
2023-03-03T05:01:00.603Z,-0.29
2023-03-03T05:03:37.868Z,-0.28
2023-03-03T05:06:09.714Z,-0.29
2023-03-03T05:08:43.558Z,-0.31
2023-03-03T05:11:16.178Z,-0.31
2023-03-03T05:13:48.034Z,-0.31
2023-03-03T05:16:25.895Z,-0.29
2023-03-03T05:18:57.853Z,-0.31
2023-03-03T05:21:29.848Z,-0.32
2023-03-03T05:24:01.683Z,-0.32
2023-03-03T05:26:33.640Z,-0.34
2023-03-03T05:29:06.895Z,-0.35
2023-03-03T05:31:39.678Z,-0.38
2023-03-03T05:34:11.542Z,-0.39
2023-03-03T05:36:43.246Z,-0.39
2023-03-03T05:39:14.977Z,-0.40
2023-03-03T05:41:46.813Z,-0.38
2023-03-03T05:44:20.605Z,-0.37
2023-03-03T05:46:52.586Z,-0.36
2023-03-03T05:49:24.791Z,-0.38
2023-03-03T05:51:56.477Z,-0.37
2023-03-03T05:54:31.111Z,-0.34
2023-03-03T05:57:03.041Z,-0.34
2023-03-03T05:59:35.038Z,-0.33
2023-03-03T06:02:07.703Z,-0.31
2023-03-03T06:04:43.492Z,-0.26
2023-03-03T06:07:15.230Z,-0.24
2023-03-03T06:09:47.016Z,-0.10
2023-03-03T06:12:18.839Z,0.24
2023-03-03T06:14:52.194Z,0.73
2023-03-03T06:17:25.288Z,1.18
2023-03-03T06:19:58.139Z,1.86
2023-03-03T06:22:31.735Z,2.61
2023-03-03T06:25:03.934Z,3.41
2023-03-03T06:27:36.229Z,4.01
2023-03-03T06:30:14.502Z,4.62
2023-03-03T06:32:46.667Z,5.50
2023-03-03T06:35:18.564Z,6.51
2023-03-03T06:37:50.933Z,7.31
2023-03-03T06:40:23.338Z,7.92
2023-03-03T06:42:56.596Z,8.17
2023-03-03T06:45:28.354Z,8.31
2023-03-03T06:48:00.266Z,8.46
2023-03-03T06:50:32.118Z,8.54
2023-03-03T06:53:15.578Z,8.55
2023-03-03T06:55:47.548Z,8.56
2023-03-03T06:58:21.845Z,8.44
2023-03-03T07:01:01.725Z,7.30
2023-03-03T07:03:34.803Z,6.85
2023-03-03T07:06:22.277Z,6.04
2023-03-03T07:08:55.527Z,5.03
2023-03-03T07:11:27.384Z,4.44
2023-03-03T07:13:59.187Z,3.99
2023-03-03T07:16:31.143Z,3.53
2023-03-03T07:19:05.307Z,3.21
2023-03-03T07:21:41.836Z,3.12
2023-03-03T07:24:27.226Z,2.99
2023-03-03T07:27:17.490Z,2.69
2023-03-03T07:29:51.827Z,2.57
2023-03-03T07:32:26.681Z,2.79
2023-03-03T07:34:58.436Z,2.74
2023-03-03T07:37:42.444Z,2.96
2023-03-03T07:40:49.581Z,3.18
2023-03-03T07:43:39.067Z,3.63
2023-03-03T07:46:17.723Z,4.34
2023-03-03T07:48:50.370Z,4.98
2023-03-03T07:51:27.727Z,5.87
2023-03-03T07:54:28.717Z,6.98
2023-03-03T07:57:31.990Z,7.85
2023-03-03T08:00:15.036Z,8.92
2023-03-03T08:03:03.734Z,9.38
2023-03-03T08:05:40.865Z,9.82
2023-03-03T08:08:22.738Z,8.96
2023-03-03T08:10:56.252Z,9.40
2023-03-03T08:13:42.142Z,9.62
2023-03-03T08:16:13.881Z,10.04
2023-03-03T08:18:51.208Z,10.87
2023-03-03T08:21:26.757Z,11.03
2023-03-03T08:23:58.525Z,10.72
2023-03-03T08:26:30.241Z,10.79
2023-03-03T08:29:02.275Z,10.94
2023-03-03T08:31:41.606Z,11.09
2023-03-03T08:34:13.823Z,10.33
2023-03-03T08:36:47.428Z,10.18
2023-03-03T08:39:19.185Z,9.59
2023-03-03T08:41:50.999Z,9.22
2023-03-03T08:44:22.737Z,8.61
2023-03-03T08:46:54.934Z,8.05
2023-03-03T08:49:26.633Z,7.83
2023-03-03T08:51:59.144Z,7.62
2023-03-03T08:54:32.986Z,7.53
2023-03-03T08:57:08.070Z,7.25
2023-03-03T08:59:39.797Z,7.00
2023-03-03T09:02:11.604Z,6.66
2023-03-03T09:04:43.606Z,6.90
2023-03-03T09:07:15.357Z,6.49
2023-03-03T09:09:47.397Z,6.09
2023-03-03T09:12:36.087Z,6.25
2023-03-03T09:15:24.598Z,6.30
2023-03-03T09:18:22.764Z,6.55
2023-03-03T09:20:57.899Z,6.73
2023-03-03T09:23:37.335Z,7.12
2023-03-03T09:26:42.632Z,7.95
2023-03-03T09:29:14.279Z,8.60
2023-03-03T09:31:48.441Z,8.72
2023-03-03T09:34:42.824Z,9.29
2023-03-03T09:37:32.657Z,9.86
2023-03-03T09:40:31.768Z,10.42
2023-03-03T09:43:19.817Z,10.97
2023-03-03T09:46:08.358Z,11.02
2023-03-03T09:48:56.435Z,11.24
2023-03-03T09:51:57.872Z,11.34
2023-03-03T09:54:50.409Z,11.30
2023-03-03T09:58:04.472Z,11.50
2023-03-03T10:00:44.336Z,12.46
2023-03-03T10:03:56.233Z,12.90
2023-03-03T10:06:59.267Z,13.52
2023-03-03T10:09:33.738Z,12.66
2023-03-03T10:12:44.310Z,12.05
2023-03-03T10:15:30.494Z,12.67
2023-03-03T10:18:15.548Z,12.51
2023-03-03T10:21:18.245Z,12.96
2023-03-03T10:24:30.023Z,13.45
2023-03-03T10:30:42.698Z,14.16
2023-03-03T10:33:45.362Z,13.83
2023-03-03T10:36:57.565Z,13.43
2023-03-03T10:40:07.018Z,13.40
2023-03-03T10:42:53.897Z,13.48
2023-03-03T10:45:44.560Z,13.63
2023-03-03T10:49:08.173Z,13.38
2023-03-03T10:51:52.797Z,13.73
2023-03-03T10:55:00.116Z,13.02
2023-03-03T10:57:42.661Z,12.20
2023-03-03T11:00:22.807Z,13.05
2023-03-03T11:03:00.703Z,13.55
2023-03-03T11:05:40.482Z,13.76
2023-03-03T11:08:22.338Z,13.92
2023-03-03T11:11:18.182Z,13.70
2023-03-03T11:14:24.120Z,13.53
2023-03-03T11:17:24.753Z,13.32
2023-03-03T11:20:27.198Z,13.60
2023-03-03T11:23:21.515Z,14.41
2023-03-03T11:26:15.613Z,14.37
2023-03-03T11:29:32.273Z,13.49
2023-03-03T11:32:22.870Z,12.71
2023-03-03T11:35:16.244Z,13.34
2023-03-03T11:37:55.158Z,13.99
2023-03-03T11:40:49.104Z,14.15
2023-03-03T11:43:37.428Z,14.64
2023-03-03T11:46:16.015Z,14.52
2023-03-03T11:48:56.309Z,14.21
2023-03-03T11:51:43.549Z,13.92
2023-03-03T11:54:32.210Z,13.87
2023-03-03T11:57:15.661Z,13.55
2023-03-03T11:59:56.721Z,13.33
2023-03-03T12:02:37.184Z,13.81
2023-03-03T12:05:27.384Z,13.97
2023-03-03T12:08:41.016Z,14.29
2023-03-03T12:11:26.860Z,14.66
2023-03-03T12:14:05.164Z,14.70
2023-03-03T12:16:56.840Z,14.08
2023-03-03T12:19:28.448Z,13.04
2023-03-03T12:22:35.861Z,12.98
2023-03-03T12:25:32.652Z,12.52
2023-03-03T12:28:10.025Z,12.69
2023-03-03T12:30:41.705Z,12.49
2023-03-03T12:33:33.656Z,12.35
2023-03-03T12:36:18.983Z,12.18
2023-03-03T12:39:12.012Z,12.50
2023-03-03T12:42:08.086Z,12.50
2023-03-03T12:44:59.493Z,12.76
2023-03-03T12:47:42.666Z,13.15
2023-03-03T12:50:38.908Z,12.55
2023-03-03T12:53:19.417Z,12.80
2023-03-03T12:56:01.640Z,13.23
2023-03-03T12:59:18.356Z,13.21
2023-03-03T13:02:18.032Z,13.56
2023-03-03T13:05:19.333Z,13.82
2023-03-03T13:08:09.828Z,13.86
2023-03-03T13:10:49.420Z,13.90
2023-03-03T13:13:42.550Z,13.81
2023-03-03T13:16:57.550Z,12.87
2023-03-03T13:19:41.435Z,11.98
2023-03-03T13:22:22.455Z,11.43
2023-03-03T13:25:06.107Z,10.86
2023-03-03T13:27:44.224Z,10.86
2023-03-03T13:30:33.051Z,10.94
2023-03-03T13:33:22.805Z,11.34
2023-03-03T13:36:09.149Z,11.82
2023-03-03T13:38:50.315Z,11.72
2023-03-03T13:41:43.032Z,11.71
2023-03-03T13:44:22.858Z,11.96
2023-03-03T13:47:04.211Z,11.56
2023-03-03T13:50:07.760Z,12.07
2023-03-03T13:52:50.377Z,11.96
2023-03-03T13:55:36.846Z,11.85
2023-03-03T13:58:20.629Z,11.69
2023-03-03T14:01:06.738Z,11.24
2023-03-03T14:03:55.634Z,10.62
2023-03-03T14:06:29.637Z,10.22
2023-03-03T14:09:09.719Z,9.77
2023-03-03T14:12:09.205Z,9.59
2023-03-03T14:14:46.676Z,9.44
2023-03-03T14:17:51.565Z,9.37
2023-03-03T14:20:40.385Z,9.30
2023-03-03T14:23:30.863Z,8.98
2023-03-03T14:26:07.965Z,8.78
2023-03-03T14:28:49.678Z,8.51
2023-03-03T14:31:33.048Z,8.39
2023-03-03T14:34:22.604Z,8.32
2023-03-03T14:37:08.485Z,8.16
2023-03-03T14:39:41.355Z,8.09
2023-03-03T14:42:34.193Z,7.82
2023-03-03T14:45:29.403Z,7.65
2023-03-03T14:48:19.123Z,7.67
2023-03-03T14:51:15.140Z,7.52
2023-03-03T14:53:50.089Z,7.41
2023-03-03T14:56:25.051Z,7.44
2023-03-03T14:59:29.153Z,7.30
2023-03-03T15:02:15.992Z,7.05
2023-03-03T15:04:51.834Z,6.92
2023-03-03T15:07:37.914Z,6.92
2023-03-03T15:10:12.982Z,6.57
2023-03-03T15:12:44.693Z,6.45
2023-03-03T15:15:24.945Z,6.55
2023-03-03T15:18:02.742Z,6.46
2023-03-03T15:20:53.209Z,6.34
2023-03-03T15:23:45.976Z,6.29
2023-03-03T15:26:36.951Z,6.32
2023-03-03T15:29:34.129Z,6.25
2023-03-03T15:32:29.658Z,6.15
2023-03-03T15:35:34.501Z,6.06
2023-03-03T15:38:27.532Z,5.92
2023-03-03T15:41:11.115Z,5.84
2023-03-03T15:44:04.435Z,5.82
2023-03-03T15:47:09.953Z,5.77
2023-03-03T15:50:00.150Z,5.73
2023-03-03T15:53:13.073Z,5.69
2023-03-03T15:56:23.795Z,5.56
2023-03-03T15:58:55.401Z,5.60
2023-03-03T16:01:36.303Z,5.52
2023-03-03T16:04:18.227Z,5.42
2023-03-03T16:07:06.260Z,5.36
2023-03-03T16:10:18.983Z,5.39
2023-03-03T16:12:54.539Z,5.36
2023-03-03T16:15:34.593Z,5.34
2023-03-03T16:18:33.520Z,5.35
2023-03-03T16:21:39.819Z,5.08
2023-03-03T16:24:11.517Z,4.99
2023-03-03T16:26:52.931Z,5.01
2023-03-03T16:29:50.956Z,4.94
2023-03-03T16:32:34.417Z,4.81
2023-03-03T16:35:22.336Z,4.74
2023-03-03T16:38:01.866Z,4.73
2023-03-03T16:40:50.478Z,4.68
2023-03-03T16:43:37.341Z,4.53
2023-03-03T16:46:26.994Z,4.44
2023-03-03T16:49:23.242Z,4.41
2023-03-03T16:52:12.164Z,4.31
2023-03-03T16:55:09.961Z,4.25
2023-03-03T16:58:35.471Z,4.17
2023-03-03T17:01:12.985Z,4.18
2023-03-03T17:03:48.766Z,4.14
2023-03-03T17:06:52.135Z,3.91
2023-03-03T17:09:32.840Z,3.64
2023-03-03T17:12:39.738Z,3.48
2023-03-03T17:15:38.683Z,3.39
2023-03-03T17:18:38.892Z,3.34
2023-03-03T17:21:49.653Z,3.33
2023-03-03T17:24:51.114Z,3.23
2023-03-03T17:27:51.223Z,3.16
2023-03-03T17:30:54.933Z,3.16
2023-03-03T17:34:04.890Z,3.12
2023-03-03T17:37:04.433Z,3.12
2023-03-03T17:40:13.760Z,3.08
2023-03-03T17:42:45.370Z,3.04
2023-03-03T17:45:22.177Z,3.03
2023-03-03T17:47:57.414Z,3.06
2023-03-03T17:50:56.996Z,3.05
2023-03-03T17:53:46.687Z,3.09
2023-03-03T17:56:31.445Z,3.09
2023-03-03T17:59:38.817Z,3.05
2023-03-03T18:02:35.371Z,2.93
2023-03-03T18:05:50.078Z,2.85
2023-03-03T18:08:49.900Z,2.84
2023-03-03T18:11:47.951Z,2.62
2023-03-03T18:14:30.168Z,2.59
2023-03-03T18:17:20.506Z,2.54
2023-03-03T18:20:09.632Z,2.50
2023-03-03T18:22:43.046Z,2.45
2023-03-03T18:25:17.895Z,2.38
2023-03-03T18:28:01.874Z,2.32
2023-03-03T18:30:52.366Z,2.35
2023-03-03T18:33:37.401Z,2.37
2023-03-03T18:36:36.381Z,2.30
2023-03-03T18:39:14.164Z,2.28
2023-03-03T18:42:27.400Z,2.25
2023-03-03T18:45:22.987Z,2.08
2023-03-03T18:48:01.199Z,2.08
2023-03-03T18:50:44.271Z,2.03
2023-03-03T18:53:27.421Z,2.04
2023-03-03T18:56:03.954Z,2.05
2023-03-03T18:58:43.382Z,2.03
2023-03-03T19:01:41.599Z,2.03
2023-03-03T19:04:16.499Z,2.10
2023-03-03T19:06:48.134Z,1.96
2023-03-03T19:09:57.469Z,1.84
2023-03-03T19:12:51.801Z,1.80
2023-03-03T19:15:29.753Z,1.59
2023-03-03T19:18:21.149Z,1.52
2023-03-03T19:21:28.427Z,1.56
2023-03-03T19:24:03.663Z,1.57
2023-03-03T19:26:54.072Z,1.60
2023-03-03T19:29:52.939Z,1.62
2023-03-03T19:32:30.538Z,1.57
2023-03-03T19:35:20.509Z,1.56
2023-03-03T19:38:23.100Z,1.60
2023-03-03T19:41:14.746Z,1.65
2023-03-03T19:44:01.295Z,1.56
2023-03-03T19:47:03.210Z,1.45
2023-03-03T19:49:58.716Z,1.50
2023-03-03T19:52:45.143Z,1.41
2023-03-03T19:55:33.464Z,1.33
2023-03-03T19:58:22.797Z,1.33
2023-03-03T20:01:42.592Z,1.18
2023-03-03T20:04:52.272Z,1.14
2023-03-03T20:07:53.010Z,1.16
2023-03-03T20:11:02.709Z,1.24
2023-03-03T20:14:08.261Z,1.26
2023-03-03T20:16:42.819Z,1.20
2023-03-03T20:19:32.087Z,1.20
2023-03-03T20:22:34.748Z,1.33
2023-03-03T20:26:04.682Z,1.35
2023-03-03T20:28:41.121Z,1.25
2023-03-03T20:31:44.202Z,1.23
2023-03-03T20:34:38.504Z,1.30
2023-03-03T20:37:46.636Z,1.23
2023-03-03T20:40:51.895Z,1.22
2023-03-03T20:43:50.526Z,1.24
2023-03-03T20:46:37.427Z,1.28
2023-03-03T20:49:30.843Z,1.34
2023-03-03T20:52:18.850Z,1.41
2023-03-03T20:55:09.555Z,1.34
2023-03-03T20:58:00.227Z,1.29
2023-03-03T21:00:57.528Z,1.27
2023-03-03T21:03:38.889Z,1.25
2023-03-03T21:06:21.067Z,1.19
2023-03-03T21:08:58.941Z,1.17
2023-03-03T21:11:30.630Z,1.13
2023-03-03T21:14:32.361Z,1.09
2023-03-03T21:17:30.757Z,1.03
2023-03-03T21:20:28.032Z,1.03
2023-03-03T21:23:04.588Z,1.07
2023-03-03T21:25:44.117Z,1.07
2023-03-03T21:28:33.982Z,1.10
2023-03-03T21:31:20.126Z,1.15
2023-03-03T21:33:57.258Z,1.14
2023-03-03T21:36:35.250Z,1.13
2023-03-03T21:39:46.885Z,1.11
2023-03-03T21:42:42.447Z,1.15
2023-03-03T21:45:16.476Z,1.16
2023-03-03T21:47:48.364Z,1.09
2023-03-03T21:50:22.992Z,1.05
2023-03-03T21:52:56.640Z,1.07
2023-03-03T21:55:28.668Z,1.08
2023-03-03T21:58:00.375Z,1.04
2023-03-03T22:00:32.104Z,0.99
2023-03-03T22:03:04.061Z,0.97
2023-03-03T22:05:35.928Z,0.97
2023-03-03T22:08:08.008Z,1.05
2023-03-03T22:10:42.405Z,1.12
2023-03-03T22:13:20.091Z,1.06
2023-03-03T22:15:53.172Z,0.97
2023-03-03T22:18:27.913Z,0.95
2023-03-03T22:20:59.659Z,1.00
2023-03-03T22:23:34.548Z,0.97
2023-03-03T22:26:06.621Z,0.90
2023-03-03T22:28:38.335Z,0.89
2023-03-03T22:31:10.209Z,0.82
2023-03-03T22:33:42.148Z,0.78
2023-03-03T22:36:19.047Z,0.75
2023-03-03T22:38:50.916Z,0.74
2023-03-03T22:41:23.489Z,0.76
2023-03-03T22:43:55.209Z,0.78
2023-03-03T22:46:26.972Z,0.84
2023-03-03T22:48:59.529Z,0.92
2023-03-03T22:51:31.559Z,0.96
2023-03-03T22:54:03.465Z,0.99
2023-03-03T22:56:35.442Z,1.02
2023-03-03T22:59:10.060Z,1.04
2023-03-03T23:01:41.908Z,1.07
2023-03-03T23:04:13.660Z,1.03
2023-03-03T23:06:45.655Z,1.04
2023-03-03T23:09:18.897Z,1.05
2023-03-03T23:11:52.085Z,1.05
2023-03-03T23:14:23.808Z,1.03
2023-03-03T23:16:56.075Z,1.04
2023-03-03T23:19:29.988Z,1.06
2023-03-03T23:22:01.726Z,1.07
2023-03-03T23:24:33.484Z,1.10
2023-03-03T23:27:05.212Z,1.09
2023-03-03T23:29:38.359Z,1.06
2023-03-03T23:32:10.174Z,1.04
2023-03-03T23:34:41.952Z,1.05
2023-03-03T23:37:14.007Z,1.07
2023-03-03T23:39:49.446Z,1.05
2023-03-03T23:42:22.548Z,1.09
2023-03-03T23:44:54.540Z,1.06
2023-03-03T23:47:26.536Z,1.05
2023-03-03T23:49:58.260Z,0.97
2023-03-03T23:52:30.273Z,1.01
2023-03-03T23:55:03.181Z,0.98
2023-03-03T23:57:35.054Z,0.77
